sensor_id;sensor_type;location;lat;lon;timestamp;P1;durP1;ratioP1;P2;durP2;ratioP2
4353;SDS011;11018;51.258;6.806;2023-05-27T00:01:16;24.37;;;8.60;;
4353;SDS011;11018;51.258;6.806;2023-05-27T00:03:42;26.80;;;8.30;;
4353;SDS011;11018;51.258;6.806;2023-05-27T00:06:08;29.92;;;9.57;;
4353;SDS011;11018;51.258;6.806;2023-05-27T00:08:33;28.70;;;8.27;;
4353;SDS011;11018;51.258;6.806;2023-05-27T00:10:59;26.13;;;8.25;;
4353;SDS011;11018;51.258;6.806;2023-05-27T00:13:24;27.87;;;8.50;;
4353;SDS011;11018;51.258;6.806;2023-05-27T00:15:50;27.53;;;8.47;;
4353;SDS011;11018;51.258;6.806;2023-05-27T00:18:16;31.45;;;9.13;;
4353;SDS011;11018;51.258;6.806;2023-05-27T00:20:41;31.27;;;9.05;;
4353;SDS011;11018;51.258;6.806;2023-05-27T00:23:07;28.70;;;8.83;;
4353;SDS011;11018;51.258;6.806;2023-05-27T00:25:33;32.80;;;8.97;;
4353;SDS011;11018;51.258;6.806;2023-05-27T00:27:58;26.37;;;9.00;;
4353;SDS011;11018;51.258;6.806;2023-05-27T00:30:24;30.03;;;8.97;;
4353;SDS011;11018;51.258;6.806;2023-05-27T00:32:49;25.20;;;8.40;;
4353;SDS011;11018;51.258;6.806;2023-05-27T00:35:15;28.47;;;8.97;;
4353;SDS011;11018;51.258;6.806;2023-05-27T00:37:41;35.60;;;8.67;;
4353;SDS011;11018;51.258;6.806;2023-05-27T00:40:08;27.20;;;8.00;;
4353;SDS011;11018;51.258;6.806;2023-05-27T00:42:35;22.17;;;8.10;;
4353;SDS011;11018;51.258;6.806;2023-05-27T00:45:02;30.52;;;8.43;;
4353;SDS011;11018;51.258;6.806;2023-05-27T00:47:29;31.73;;;8.88;;
4353;SDS011;11018;51.258;6.806;2023-05-27T00:49:56;30.60;;;8.93;;
4353;SDS011;11018;51.258;6.806;2023-05-27T00:52:21;28.42;;;8.40;;
4353;SDS011;11018;51.258;6.806;2023-05-27T00:54:47;27.53;;;7.97;;
4353;SDS011;11018;51.258;6.806;2023-05-27T00:57:13;26.60;;;8.45;;
4353;SDS011;11018;51.258;6.806;2023-05-27T00:59:39;35.97;;;9.57;;
4353;SDS011;11018;51.258;6.806;2023-05-27T01:02:05;31.07;;;9.03;;
4353;SDS011;11018;51.258;6.806;2023-05-27T01:04:30;25.33;;;8.57;;
4353;SDS011;11018;51.258;6.806;2023-05-27T01:09:31;32.92;;;8.70;;
4353;SDS011;11018;51.258;6.806;2023-05-27T01:12:08;28.98;;;8.63;;
4353;SDS011;11018;51.258;6.806;2023-05-27T01:14:42;37.45;;;9.20;;
4353;SDS011;11018;51.258;6.806;2023-05-27T01:17:10;29.67;;;8.18;;
4353;SDS011;11018;51.258;6.806;2023-05-27T01:19:37;27.60;;;8.65;;
4353;SDS011;11018;51.258;6.806;2023-05-27T01:22:07;31.25;;;8.38;;
4353;SDS011;11018;51.258;6.806;2023-05-27T01:24:36;28.27;;;8.32;;
4353;SDS011;11018;51.258;6.806;2023-05-27T01:27:02;28.58;;;8.35;;
4353;SDS011;11018;51.258;6.806;2023-05-27T01:29:28;32.53;;;8.35;;
4353;SDS011;11018;51.258;6.806;2023-05-27T01:34:33;34.70;;;9.45;;
4353;SDS011;11018;51.258;6.806;2023-05-27T01:37:09;33.40;;;9.65;;
4353;SDS011;11018;51.258;6.806;2023-05-27T01:39:38;31.30;;;9.23;;
4353;SDS011;11018;51.258;6.806;2023-05-27T01:42:05;30.97;;;8.80;;
4353;SDS011;11018;51.258;6.806;2023-05-27T01:44:32;30.13;;;9.45;;
4353;SDS011;11018;51.258;6.806;2023-05-27T01:47:01;25.10;;;8.20;;
4353;SDS011;11018;51.258;6.806;2023-05-27T01:49:30;27.25;;;9.27;;
4353;SDS011;11018;51.258;6.806;2023-05-27T01:51:56;30.23;;;8.53;;
4353;SDS011;11018;51.258;6.806;2023-05-27T01:54:21;32.00;;;9.27;;
4353;SDS011;11018;51.258;6.806;2023-05-27T01:56:47;34.50;;;9.10;;
4353;SDS011;11018;51.258;6.806;2023-05-27T01:59:13;29.17;;;9.07;;
4353;SDS011;11018;51.258;6.806;2023-05-27T02:01:39;33.33;;;9.30;;
4353;SDS011;11018;51.258;6.806;2023-05-27T02:04:05;27.33;;;9.20;;
4353;SDS011;11018;51.258;6.806;2023-05-27T02:06:30;27.40;;;8.93;;
4353;SDS011;11018;51.258;6.806;2023-05-27T02:08:57;26.92;;;9.60;;
4353;SDS011;11018;51.258;6.806;2023-05-27T02:11:22;28.10;;;9.43;;
4353;SDS011;11018;51.258;6.806;2023-05-27T02:13:48;36.97;;;9.60;;
4353;SDS011;11018;51.258;6.806;2023-05-27T02:16:14;30.85;;;9.50;;
4353;SDS011;11018;51.258;6.806;2023-05-27T02:18:40;25.80;;;8.95;;
4353;SDS011;11018;51.258;6.806;2023-05-27T02:21:06;32.90;;;8.82;;
4353;SDS011;11018;51.258;6.806;2023-05-27T02:23:32;27.85;;;9.40;;
4353;SDS011;11018;51.258;6.806;2023-05-27T02:25:58;30.63;;;8.88;;
4353;SDS011;11018;51.258;6.806;2023-05-27T02:28:25;29.30;;;9.10;;
4353;SDS011;11018;51.258;6.806;2023-05-27T02:30:51;36.58;;;9.65;;
4353;SDS011;11018;51.258;6.806;2023-05-27T02:33:16;30.73;;;8.75;;
4353;SDS011;11018;51.258;6.806;2023-05-27T02:35:42;29.83;;;8.97;;
4353;SDS011;11018;51.258;6.806;2023-05-27T02:38:08;28.90;;;9.13;;
4353;SDS011;11018;51.258;6.806;2023-05-27T02:40:33;34.00;;;9.50;;
4353;SDS011;11018;51.258;6.806;2023-05-27T02:42:59;35.47;;;9.50;;
4353;SDS011;11018;51.258;6.806;2023-05-27T02:45:24;27.73;;;9.33;;
4353;SDS011;11018;51.258;6.806;2023-05-27T02:47:50;29.77;;;10.73;;
4353;SDS011;11018;51.258;6.806;2023-05-27T02:50:15;31.17;;;9.93;;
4353;SDS011;11018;51.258;6.806;2023-05-27T02:52:41;30.60;;;9.67;;
4353;SDS011;11018;51.258;6.806;2023-05-27T02:55:07;27.27;;;9.90;;
4353;SDS011;11018;51.258;6.806;2023-05-27T02:57:32;30.00;;;10.50;;
4353;SDS011;11018;51.258;6.806;2023-05-27T02:59:58;24.60;;;9.70;;
4353;SDS011;11018;51.258;6.806;2023-05-27T03:02:24;32.17;;;9.70;;
4353;SDS011;11018;51.258;6.806;2023-05-27T03:04:49;30.13;;;9.90;;
4353;SDS011;11018;51.258;6.806;2023-05-27T03:07:15;29.90;;;9.10;;
4353;SDS011;11018;51.258;6.806;2023-05-27T03:09:40;32.10;;;9.53;;
4353;SDS011;11018;51.258;6.806;2023-05-27T03:12:06;31.03;;;10.00;;
4353;SDS011;11018;51.258;6.806;2023-05-27T03:14:32;30.10;;;9.87;;
4353;SDS011;11018;51.258;6.806;2023-05-27T03:16:57;29.60;;;9.37;;
4353;SDS011;11018;51.258;6.806;2023-05-27T03:19:23;31.57;;;10.00;;
4353;SDS011;11018;51.258;6.806;2023-05-27T03:21:49;30.90;;;9.73;;
4353;SDS011;11018;51.258;6.806;2023-05-27T03:26:43;32.33;;;10.35;;
4353;SDS011;11018;51.258;6.806;2023-05-27T03:29:09;28.98;;;9.93;;
4353;SDS011;11018;51.258;6.806;2023-05-27T03:31:35;36.60;;;10.70;;
4353;SDS011;11018;51.258;6.806;2023-05-27T03:34:00;29.27;;;10.43;;
4353;SDS011;11018;51.258;6.806;2023-05-27T03:36:26;32.47;;;10.10;;
4353;SDS011;11018;51.258;6.806;2023-05-27T03:38:52;37.40;;;10.20;;
4353;SDS011;11018;51.258;6.806;2023-05-27T03:41:17;26.40;;;10.00;;
4353;SDS011;11018;51.258;6.806;2023-05-27T03:43:43;30.73;;;10.30;;
4353;SDS011;11018;51.258;6.806;2023-05-27T03:46:08;22.02;;;9.43;;
4353;SDS011;11018;51.258;6.806;2023-05-27T03:48:34;28.40;;;9.63;;
4353;SDS011;11018;51.258;6.806;2023-05-27T03:50:59;32.70;;;10.90;;
4353;SDS011;11018;51.258;6.806;2023-05-27T03:53:25;35.63;;;10.55;;
4353;SDS011;11018;51.258;6.806;2023-05-27T03:55:50;39.20;;;11.20;;
4353;SDS011;11018;51.258;6.806;2023-05-27T03:58:16;33.73;;;11.43;;
4353;SDS011;11018;51.258;6.806;2023-05-27T04:00:42;25.17;;;9.90;;
4353;SDS011;11018;51.258;6.806;2023-05-27T04:03:08;40.92;;;10.98;;
4353;SDS011;11018;51.258;6.806;2023-05-27T04:05:34;29.50;;;9.90;;
4353;SDS011;11018;51.258;6.806;2023-05-27T04:08:01;29.73;;;9.45;;
4353;SDS011;11018;51.258;6.806;2023-05-27T04:10:28;32.00;;;9.67;;
4353;SDS011;11018;51.258;6.806;2023-05-27T04:12:53;29.37;;;10.20;;
4353;SDS011;11018;51.258;6.806;2023-05-27T04:15:19;25.77;;;10.30;;
4353;SDS011;11018;51.258;6.806;2023-05-27T04:17:44;33.50;;;11.43;;
4353;SDS011;11018;51.258;6.806;2023-05-27T04:20:10;28.13;;;9.50;;
4353;SDS011;11018;51.258;6.806;2023-05-27T04:22:40;29.60;;;10.27;;
4353;SDS011;11018;51.258;6.806;2023-05-27T04:25:06;26.45;;;10.32;;
4353;SDS011;11018;51.258;6.806;2023-05-27T04:27:32;31.30;;;10.10;;
4353;SDS011;11018;51.258;6.806;2023-05-27T04:30:01;30.55;;;10.00;;
4353;SDS011;11018;51.258;6.806;2023-05-27T04:32:29;34.05;;;10.90;;
4353;SDS011;11018;51.258;6.806;2023-05-27T04:35:02;34.43;;;10.30;;
4353;SDS011;11018;51.258;6.806;2023-05-27T04:37:34;23.75;;;10.05;;
4353;SDS011;11018;51.258;6.806;2023-05-27T04:40:02;26.50;;;9.32;;
4353;SDS011;11018;51.258;6.806;2023-05-27T04:42:29;31.98;;;11.40;;
4353;SDS011;11018;51.258;6.806;2023-05-27T04:44:54;28.13;;;10.73;;
4353;SDS011;11018;51.258;6.806;2023-05-27T04:47:20;32.90;;;11.07;;
4353;SDS011;11018;51.258;6.806;2023-05-27T04:49:47;30.48;;;9.40;;
4353;SDS011;11018;51.258;6.806;2023-05-27T04:52:12;36.78;;;10.00;;
4353;SDS011;11018;51.258;6.806;2023-05-27T04:54:38;24.48;;;9.98;;
4353;SDS011;11018;51.258;6.806;2023-05-27T04:57:04;32.22;;;10.18;;
4353;SDS011;11018;51.258;6.806;2023-05-27T04:59:31;30.92;;;10.70;;
4353;SDS011;11018;51.258;6.806;2023-05-27T05:02:26;32.22;;;9.90;;
4353;SDS011;11018;51.258;6.806;2023-05-27T05:05:00;26.45;;;9.60;;
4353;SDS011;11018;51.258;6.806;2023-05-27T05:07:30;28.60;;;10.07;;
4353;SDS011;11018;51.258;6.806;2023-05-27T05:09:56;26.48;;;9.82;;
4353;SDS011;11018;51.258;6.806;2023-05-27T05:12:22;33.65;;;9.70;;
4353;SDS011;11018;51.258;6.806;2023-05-27T05:14:48;30.83;;;10.40;;
4353;SDS011;11018;51.258;6.806;2023-05-27T05:17:14;27.10;;;9.83;;
4353;SDS011;11018;51.258;6.806;2023-05-27T05:19:40;28.37;;;10.37;;
4353;SDS011;11018;51.258;6.806;2023-05-27T05:22:05;33.73;;;10.13;;
4353;SDS011;11018;51.258;6.806;2023-05-27T05:24:31;29.93;;;10.00;;
4353;SDS011;11018;51.258;6.806;2023-05-27T05:26:56;31.70;;;9.70;;
4353;SDS011;11018;51.258;6.806;2023-05-27T05:29:22;34.00;;;10.03;;
4353;SDS011;11018;51.258;6.806;2023-05-27T05:31:47;28.17;;;10.43;;
4353;SDS011;11018;51.258;6.806;2023-05-27T05:34:13;24.60;;;9.70;;
4353;SDS011;11018;51.258;6.806;2023-05-27T05:36:39;31.00;;;9.50;;
4353;SDS011;11018;51.258;6.806;2023-05-27T05:39:04;27.37;;;10.10;;
4353;SDS011;11018;51.258;6.806;2023-05-27T05:41:30;28.83;;;10.17;;
4353;SDS011;11018;51.258;6.806;2023-05-27T05:43:56;27.10;;;9.10;;
4353;SDS011;11018;51.258;6.806;2023-05-27T05:46:21;26.03;;;9.80;;
4353;SDS011;11018;51.258;6.806;2023-05-27T05:48:47;23.83;;;9.70;;
4353;SDS011;11018;51.258;6.806;2023-05-27T05:51:12;31.80;;;9.50;;
4353;SDS011;11018;51.258;6.806;2023-05-27T05:53:38;31.17;;;9.68;;
4353;SDS011;11018;51.258;6.806;2023-05-27T05:56:04;28.95;;;9.43;;
4353;SDS011;11018;51.258;6.806;2023-05-27T05:58:29;27.67;;;9.20;;
4353;SDS011;11018;51.258;6.806;2023-05-27T06:00:55;36.63;;;10.38;;
4353;SDS011;11018;51.258;6.806;2023-05-27T06:03:21;28.20;;;10.27;;
4353;SDS011;11018;51.258;6.806;2023-05-27T06:05:46;30.88;;;10.48;;
4353;SDS011;11018;51.258;6.806;2023-05-27T06:08:12;35.10;;;10.43;;
4353;SDS011;11018;51.258;6.806;2023-05-27T06:10:37;28.55;;;9.90;;
4353;SDS011;11018;51.258;6.806;2023-05-27T06:13:03;27.37;;;10.23;;
4353;SDS011;11018;51.258;6.806;2023-05-27T06:15:29;28.42;;;9.43;;
4353;SDS011;11018;51.258;6.806;2023-05-27T06:17:55;29.73;;;10.50;;
4353;SDS011;11018;51.258;6.806;2023-05-27T06:20:21;32.87;;;10.50;;
4353;SDS011;11018;51.258;6.806;2023-05-27T06:22:47;31.70;;;9.80;;
4353;SDS011;11018;51.258;6.806;2023-05-27T06:25:13;30.33;;;9.93;;
4353;SDS011;11018;51.258;6.806;2023-05-27T06:27:38;34.43;;;9.97;;
4353;SDS011;11018;51.258;6.806;2023-05-27T06:30:04;28.37;;;9.67;;
4353;SDS011;11018;51.258;6.806;2023-05-27T06:32:31;28.27;;;10.10;;
4353;SDS011;11018;51.258;6.806;2023-05-27T06:34:56;27.65;;;10.10;;
4353;SDS011;11018;51.258;6.806;2023-05-27T06:37:22;28.33;;;9.68;;
4353;SDS011;11018;51.258;6.806;2023-05-27T06:39:47;27.25;;;9.18;;
4353;SDS011;11018;51.258;6.806;2023-05-27T06:42:13;30.75;;;10.70;;
4353;SDS011;11018;51.258;6.806;2023-05-27T06:44:39;35.97;;;10.95;;
4353;SDS011;11018;51.258;6.806;2023-05-27T06:47:05;29.40;;;9.65;;
4353;SDS011;11018;51.258;6.806;2023-05-27T06:49:30;27.77;;;9.70;;
4353;SDS011;11018;51.258;6.806;2023-05-27T06:51:56;25.70;;;8.50;;
4353;SDS011;11018;51.258;6.806;2023-05-27T06:54:21;29.27;;;9.27;;
4353;SDS011;11018;51.258;6.806;2023-05-27T06:56:47;22.23;;;8.60;;
4353;SDS011;11018;51.258;6.806;2023-05-27T06:59:12;26.63;;;9.40;;
4353;SDS011;11018;51.258;6.806;2023-05-27T07:01:38;26.25;;;9.30;;
4353;SDS011;11018;51.258;6.806;2023-05-27T07:04:03;28.00;;;8.75;;
4353;SDS011;11018;51.258;6.806;2023-05-27T07:06:29;30.23;;;9.10;;
4353;SDS011;11018;51.258;6.806;2023-05-27T07:08:55;22.70;;;8.20;;
4353;SDS011;11018;51.258;6.806;2023-05-27T07:11:20;27.60;;;9.10;;
4353;SDS011;11018;51.258;6.806;2023-05-27T07:13:46;32.20;;;9.13;;
4353;SDS011;11018;51.258;6.806;2023-05-27T07:16:12;20.02;;;8.45;;
4353;SDS011;11018;51.258;6.806;2023-05-27T07:18:38;29.13;;;9.60;;
4353;SDS011;11018;51.258;6.806;2023-05-27T07:21:03;25.23;;;9.27;;
4353;SDS011;11018;51.258;6.806;2023-05-27T07:23:29;31.03;;;9.43;;
4353;SDS011;11018;51.258;6.806;2023-05-27T07:25:54;25.77;;;9.45;;
4353;SDS011;11018;51.258;6.806;2023-05-27T07:28:20;24.05;;;8.55;;
4353;SDS011;11018;51.258;6.806;2023-05-27T07:30:45;22.40;;;8.60;;
4353;SDS011;11018;51.258;6.806;2023-05-27T07:33:11;26.27;;;8.93;;
4353;SDS011;11018;51.258;6.806;2023-05-27T07:35:37;30.45;;;8.63;;
4353;SDS011;11018;51.258;6.806;2023-05-27T07:38:03;27.80;;;8.13;;
4353;SDS011;11018;51.258;6.806;2023-05-27T07:40:29;28.70;;;8.33;;
4353;SDS011;11018;51.258;6.806;2023-05-27T07:42:54;20.83;;;8.27;;
4353;SDS011;11018;51.258;6.806;2023-05-27T07:45:20;27.27;;;8.40;;
4353;SDS011;11018;51.258;6.806;2023-05-27T07:47:47;23.27;;;8.43;;
4353;SDS011;11018;51.258;6.806;2023-05-27T07:50:13;26.90;;;8.43;;
4353;SDS011;11018;51.258;6.806;2023-05-27T07:52:39;26.33;;;8.30;;
4353;SDS011;11018;51.258;6.806;2023-05-27T07:55:06;26.88;;;8.25;;
4353;SDS011;11018;51.258;6.806;2023-05-27T07:57:32;28.50;;;8.32;;
4353;SDS011;11018;51.258;6.806;2023-05-27T07:59:57;21.40;;;7.63;;
4353;SDS011;11018;51.258;6.806;2023-05-27T08:02:23;23.33;;;8.30;;
4353;SDS011;11018;51.258;6.806;2023-05-27T08:04:50;21.52;;;7.80;;
4353;SDS011;11018;51.258;6.806;2023-05-27T08:07:16;26.05;;;7.82;;
4353;SDS011;11018;51.258;6.806;2023-05-27T08:09:41;22.02;;;7.60;;
4353;SDS011;11018;51.258;6.806;2023-05-27T08:12:07;21.90;;;7.95;;
4353;SDS011;11018;51.258;6.806;2023-05-27T08:14:33;28.80;;;8.80;;
4353;SDS011;11018;51.258;6.806;2023-05-27T08:16:59;22.73;;;7.95;;
4353;SDS011;11018;51.258;6.806;2023-05-27T08:19:25;19.80;;;7.43;;
4353;SDS011;11018;51.258;6.806;2023-05-27T08:21:51;28.00;;;8.18;;
4353;SDS011;11018;51.258;6.806;2023-05-27T08:24:16;19.52;;;8.10;;
4353;SDS011;11018;51.258;6.806;2023-05-27T08:26:42;25.52;;;8.48;;
4353;SDS011;11018;51.258;6.806;2023-05-27T08:29:07;22.60;;;7.60;;
4353;SDS011;11018;51.258;6.806;2023-05-27T08:31:33;26.47;;;8.40;;
4353;SDS011;11018;51.258;6.806;2023-05-27T08:33:58;25.83;;;8.30;;
4353;SDS011;11018;51.258;6.806;2023-05-27T08:36:24;23.63;;;8.30;;
4353;SDS011;11018;51.258;6.806;2023-05-27T08:38:50;22.20;;;7.38;;
4353;SDS011;11018;51.258;6.806;2023-05-27T08:41:16;25.10;;;8.30;;
4353;SDS011;11018;51.258;6.806;2023-05-27T08:43:42;23.83;;;8.10;;
4353;SDS011;11018;51.258;6.806;2023-05-27T08:46:08;26.33;;;7.90;;
4353;SDS011;11018;51.258;6.806;2023-05-27T08:48:34;28.47;;;8.23;;
4353;SDS011;11018;51.258;6.806;2023-05-27T08:50:59;24.37;;;7.93;;
4353;SDS011;11018;51.258;6.806;2023-05-27T08:53:26;22.88;;;7.05;;
4353;SDS011;11018;51.258;6.806;2023-05-27T08:55:54;22.23;;;7.60;;
4353;SDS011;11018;51.258;6.806;2023-05-27T08:58:22;21.95;;;7.20;;
4353;SDS011;11018;51.258;6.806;2023-05-27T09:00:48;22.40;;;7.10;;
4353;SDS011;11018;51.258;6.806;2023-05-27T09:03:14;23.37;;;7.40;;
4353;SDS011;11018;51.258;6.806;2023-05-27T09:05:39;27.17;;;7.97;;
4353;SDS011;11018;51.258;6.806;2023-05-27T09:08:07;19.35;;;7.75;;
4353;SDS011;11018;51.258;6.806;2023-05-27T09:10:39;23.93;;;7.90;;
4353;SDS011;11018;51.258;6.806;2023-05-27T09:13:06;21.75;;;7.22;;
4353;SDS011;11018;51.258;6.806;2023-05-27T09:15:32;23.63;;;7.80;;
4353;SDS011;11018;51.258;6.806;2023-05-27T09:17:58;25.35;;;8.15;;
4353;SDS011;11018;51.258;6.806;2023-05-27T09:20:24;21.67;;;7.93;;
4353;SDS011;11018;51.258;6.806;2023-05-27T09:22:55;23.67;;;7.65;;
4353;SDS011;11018;51.258;6.806;2023-05-27T09:25:23;22.17;;;7.65;;
4353;SDS011;11018;51.258;6.806;2023-05-27T09:27:50;24.27;;;7.78;;
4353;SDS011;11018;51.258;6.806;2023-05-27T09:30:18;23.48;;;7.20;;
4353;SDS011;11018;51.258;6.806;2023-05-27T09:32:44;22.60;;;7.60;;
4353;SDS011;11018;51.258;6.806;2023-05-27T09:35:11;23.25;;;7.40;;
4353;SDS011;11018;51.258;6.806;2023-05-27T09:37:37;28.88;;;7.63;;
4353;SDS011;11018;51.258;6.806;2023-05-27T09:40:07;22.80;;;7.53;;
4353;SDS011;11018;51.258;6.806;2023-05-27T09:42:44;29.50;;;7.67;;
4353;SDS011;11018;51.258;6.806;2023-05-27T09:45:12;26.45;;;8.38;;
4353;SDS011;11018;51.258;6.806;2023-05-27T09:47:39;19.90;;;7.68;;
4353;SDS011;11018;51.258;6.806;2023-05-27T09:50:09;23.25;;;7.57;;
4353;SDS011;11018;51.258;6.806;2023-05-27T09:52:39;19.48;;;7.22;;
4353;SDS011;11018;51.258;6.806;2023-05-27T09:55:06;19.75;;;7.30;;
4353;SDS011;11018;51.258;6.806;2023-05-27T09:57:33;24.13;;;7.10;;
4353;SDS011;11018;51.258;6.806;2023-05-27T10:00:00;21.17;;;6.57;;
4353;SDS011;11018;51.258;6.806;2023-05-27T10:02:32;24.30;;;7.20;;
4353;SDS011;11018;51.258;6.806;2023-05-27T10:05:00;22.67;;;7.40;;
4353;SDS011;11018;51.258;6.806;2023-05-27T10:07:28;22.10;;;7.50;;
4353;SDS011;11018;51.258;6.806;2023-05-27T10:09:53;19.08;;;6.07;;
4353;SDS011;11018;51.258;6.806;2023-05-27T10:12:19;18.60;;;7.20;;
4353;SDS011;11018;51.258;6.806;2023-05-27T10:14:46;24.90;;;7.20;;
4353;SDS011;11018;51.258;6.806;2023-05-27T10:17:12;19.15;;;7.45;;
4353;SDS011;11018;51.258;6.806;2023-05-27T10:19:48;19.13;;;6.55;;
4353;SDS011;11018;51.258;6.806;2023-05-27T10:22:18;24.58;;;7.10;;
4353;SDS011;11018;51.258;6.806;2023-05-27T10:24:45;21.77;;;7.07;;
4353;SDS011;11018;51.258;6.806;2023-05-27T10:27:13;27.15;;;7.05;;
4353;SDS011;11018;51.258;6.806;2023-05-27T10:29:39;20.02;;;7.20;;
4353;SDS011;11018;51.258;6.806;2023-05-27T10:32:04;18.52;;;6.75;;
4353;SDS011;11018;51.258;6.806;2023-05-27T10:34:34;20.42;;;6.72;;
4353;SDS011;11018;51.258;6.806;2023-05-27T10:37:00;19.70;;;6.85;;
4353;SDS011;11018;51.258;6.806;2023-05-27T10:39:26;20.20;;;7.20;;
4353;SDS011;11018;51.258;6.806;2023-05-27T10:41:52;21.02;;;6.57;;
4353;SDS011;11018;51.258;6.806;2023-05-27T10:44:28;19.05;;;6.90;;
4353;SDS011;11018;51.258;6.806;2023-05-27T10:47:02;19.55;;;6.65;;
4353;SDS011;11018;51.258;6.806;2023-05-27T10:49:36;22.17;;;6.97;;
4353;SDS011;11018;51.258;6.806;2023-05-27T10:54:38;17.23;;;6.03;;
4353;SDS011;11018;51.258;6.806;2023-05-27T10:57:04;22.00;;;6.50;;
4353;SDS011;11018;51.258;6.806;2023-05-27T10:59:45;20.83;;;6.13;;
4353;SDS011;11018;51.258;6.806;2023-05-27T11:02:21;22.75;;;7.00;;
4353;SDS011;11018;51.258;6.806;2023-05-27T11:04:48;23.65;;;6.45;;
4353;SDS011;11018;51.258;6.806;2023-05-27T11:07:20;19.98;;;6.35;;
4353;SDS011;11018;51.258;6.806;2023-05-27T11:09:47;19.30;;;6.80;;
4353;SDS011;11018;51.258;6.806;2023-05-27T11:12:14;24.73;;;7.32;;
4353;SDS011;11018;51.258;6.806;2023-05-27T11:14:44;22.30;;;6.78;;
4353;SDS011;11018;51.258;6.806;2023-05-27T11:17:14;19.10;;;6.90;;
4353;SDS011;11018;51.258;6.806;2023-05-27T11:19:40;17.50;;;6.28;;
4353;SDS011;11018;51.258;6.806;2023-05-27T11:22:09;19.75;;;7.10;;
4353;SDS011;11018;51.258;6.806;2023-05-27T11:24:35;19.58;;;6.90;;
4353;SDS011;11018;51.258;6.806;2023-05-27T11:27:08;19.45;;;7.10;;
4353;SDS011;11018;51.258;6.806;2023-05-27T11:29:34;17.97;;;7.50;;
4353;SDS011;11018;51.258;6.806;2023-05-27T11:32:00;15.23;;;6.00;;
4353;SDS011;11018;51.258;6.806;2023-05-27T11:34:27;19.40;;;6.40;;
4353;SDS011;11018;51.258;6.806;2023-05-27T11:36:53;20.92;;;7.35;;
4353;SDS011;11018;51.258;6.806;2023-05-27T11:39:18;16.95;;;5.93;;
4353;SDS011;11018;51.258;6.806;2023-05-27T11:44:17;14.05;;;6.07;;
4353;SDS011;11018;51.258;6.806;2023-05-27T11:46:45;20.58;;;7.40;;
4353;SDS011;11018;51.258;6.806;2023-05-27T11:49:12;19.23;;;6.32;;
4353;SDS011;11018;51.258;6.806;2023-05-27T11:51:39;14.98;;;5.82;;
4353;SDS011;11018;51.258;6.806;2023-05-27T11:54:06;20.70;;;6.73;;
4353;SDS011;11018;51.258;6.806;2023-05-27T11:56:32;17.17;;;6.53;;
4353;SDS011;11018;51.258;6.806;2023-05-27T11:58:58;19.02;;;6.95;;
4353;SDS011;11018;51.258;6.806;2023-05-27T12:01:24;21.65;;;6.35;;
4353;SDS011;11018;51.258;6.806;2023-05-27T12:03:50;21.63;;;7.20;;
4353;SDS011;11018;51.258;6.806;2023-05-27T12:06:16;19.97;;;5.77;;
4353;SDS011;11018;51.258;6.806;2023-05-27T12:08:42;19.35;;;6.47;;
4353;SDS011;11018;51.258;6.806;2023-05-27T12:11:08;17.63;;;5.95;;
4353;SDS011;11018;51.258;6.806;2023-05-27T12:13:34;17.50;;;6.53;;
4353;SDS011;11018;51.258;6.806;2023-05-27T12:16:00;14.38;;;6.22;;
4353;SDS011;11018;51.258;6.806;2023-05-27T12:18:28;16.77;;;5.70;;
4353;SDS011;11018;51.258;6.806;2023-05-27T12:20:54;19.30;;;6.35;;
4353;SDS011;11018;51.258;6.806;2023-05-27T12:23:20;18.67;;;5.47;;
4353;SDS011;11018;51.258;6.806;2023-05-27T12:25:46;14.32;;;6.00;;
4353;SDS011;11018;51.258;6.806;2023-05-27T12:28:11;23.00;;;6.17;;
4353;SDS011;11018;51.258;6.806;2023-05-27T12:30:37;16.10;;;5.40;;
4353;SDS011;11018;51.258;6.806;2023-05-27T12:33:03;16.23;;;6.25;;
4353;SDS011;11018;51.258;6.806;2023-05-27T12:35:30;18.52;;;7.03;;
4353;SDS011;11018;51.258;6.806;2023-05-27T12:37:56;18.90;;;6.80;;
4353;SDS011;11018;51.258;6.806;2023-05-27T12:40:22;12.38;;;5.80;;
4353;SDS011;11018;51.258;6.806;2023-05-27T12:42:48;17.13;;;6.00;;
4353;SDS011;11018;51.258;6.806;2023-05-27T12:45:13;16.90;;;6.03;;
4353;SDS011;11018;51.258;6.806;2023-05-27T12:47:39;16.13;;;5.90;;
4353;SDS011;11018;51.258;6.806;2023-05-27T12:50:05;15.38;;;5.78;;
4353;SDS011;11018;51.258;6.806;2023-05-27T12:52:31;13.68;;;6.20;;
4353;SDS011;11018;51.258;6.806;2023-05-27T12:54:57;16.07;;;6.23;;
4353;SDS011;11018;51.258;6.806;2023-05-27T12:57:23;14.68;;;6.28;;
4353;SDS011;11018;51.258;6.806;2023-05-27T12:59:49;16.00;;;5.38;;
4353;SDS011;11018;51.258;6.806;2023-05-27T13:02:14;18.63;;;6.77;;
4353;SDS011;11018;51.258;6.806;2023-05-27T13:04:40;19.35;;;5.97;;
4353;SDS011;11018;51.258;6.806;2023-05-27T13:07:05;15.90;;;6.00;;
4353;SDS011;11018;51.258;6.806;2023-05-27T13:09:34;14.48;;;6.38;;
4353;SDS011;11018;51.258;6.806;2023-05-27T13:12:00;15.98;;;6.20;;
4353;SDS011;11018;51.258;6.806;2023-05-27T13:14:27;14.57;;;6.07;;
4353;SDS011;11018;51.258;6.806;2023-05-27T13:16:52;14.50;;;6.47;;
4353;SDS011;11018;51.258;6.806;2023-05-27T13:19:19;14.68;;;5.30;;
4353;SDS011;11018;51.258;6.806;2023-05-27T13:21:45;13.10;;;5.45;;
4353;SDS011;11018;51.258;6.806;2023-05-27T13:24:10;15.47;;;6.03;;
4353;SDS011;11018;51.258;6.806;2023-05-27T13:26:37;14.63;;;6.00;;
4353;SDS011;11018;51.258;6.806;2023-05-27T13:29:02;16.40;;;6.25;;
4353;SDS011;11018;51.258;6.806;2023-05-27T13:31:28;19.27;;;6.53;;
4353;SDS011;11018;51.258;6.806;2023-05-27T13:33:54;16.23;;;6.70;;
4353;SDS011;11018;51.258;6.806;2023-05-27T13:36:19;14.88;;;6.10;;
4353;SDS011;11018;51.258;6.806;2023-05-27T13:38:45;17.20;;;6.00;;
4353;SDS011;11018;51.258;6.806;2023-05-27T13:41:10;17.05;;;6.60;;
4353;SDS011;11018;51.258;6.806;2023-05-27T13:43:36;17.65;;;6.38;;
4353;SDS011;11018;51.258;6.806;2023-05-27T13:46:02;12.93;;;5.90;;
4353;SDS011;11018;51.258;6.806;2023-05-27T13:48:28;12.77;;;6.35;;
4353;SDS011;11018;51.258;6.806;2023-05-27T13:50:54;18.45;;;5.97;;
4353;SDS011;11018;51.258;6.806;2023-05-27T13:53:19;13.80;;;6.37;;
4353;SDS011;11018;51.258;6.806;2023-05-27T13:55:45;17.40;;;6.40;;
4353;SDS011;11018;51.258;6.806;2023-05-27T13:58:11;16.98;;;6.60;;
4353;SDS011;11018;51.258;6.806;2023-05-27T14:00:37;20.52;;;5.90;;
4353;SDS011;11018;51.258;6.806;2023-05-27T14:03:03;14.10;;;5.70;;
4353;SDS011;11018;51.258;6.806;2023-05-27T14:05:28;14.55;;;5.63;;
4353;SDS011;11018;51.258;6.806;2023-05-27T14:07:55;15.85;;;5.90;;
4353;SDS011;11018;51.258;6.806;2023-05-27T14:10:20;13.00;;;5.50;;
4353;SDS011;11018;51.258;6.806;2023-05-27T14:12:46;16.13;;;6.37;;
4353;SDS011;11018;51.258;6.806;2023-05-27T14:15:12;11.90;;;6.60;;
4353;SDS011;11018;51.258;6.806;2023-05-27T14:17:37;11.20;;;6.10;;
4353;SDS011;11018;51.258;6.806;2023-05-27T14:20:03;15.60;;;6.40;;
4353;SDS011;11018;51.258;6.806;2023-05-27T14:22:35;13.73;;;6.75;;
4353;SDS011;11018;51.258;6.806;2023-05-27T14:25:01;17.55;;;6.30;;
4353;SDS011;11018;51.258;6.806;2023-05-27T14:27:26;14.75;;;5.80;;
4353;SDS011;11018;51.258;6.806;2023-05-27T14:29:52;14.47;;;5.80;;
4353;SDS011;11018;51.258;6.806;2023-05-27T14:32:18;18.30;;;6.20;;
4353;SDS011;11018;51.258;6.806;2023-05-27T14:34:43;14.52;;;6.32;;
4353;SDS011;11018;51.258;6.806;2023-05-27T14:37:09;12.03;;;6.00;;
4353;SDS011;11018;51.258;6.806;2023-05-27T14:39:34;15.00;;;6.10;;
4353;SDS011;11018;51.258;6.806;2023-05-27T14:42:00;16.67;;;6.50;;
4353;SDS011;11018;51.258;6.806;2023-05-27T14:44:25;11.80;;;5.80;;
4353;SDS011;11018;51.258;6.806;2023-05-27T14:46:51;13.83;;;5.60;;
4353;SDS011;11018;51.258;6.806;2023-05-27T14:49:16;15.30;;;6.60;;
4353;SDS011;11018;51.258;6.806;2023-05-27T14:51:42;13.57;;;5.90;;
4353;SDS011;11018;51.258;6.806;2023-05-27T14:54:07;18.20;;;5.70;;